sensor_id;sensor_type;location;lat;lon;timestamp;P1;durP1;ratioP1;P2;durP2;ratioP2
39208;SDS011;24929;51.982;4.664;2023-05-07T00:00:34;20.45;;;15.23;;
39208;SDS011;24929;51.982;4.664;2023-05-07T00:03:00;18.80;;;15.00;;
39208;SDS011;24929;51.982;4.664;2023-05-07T00:05:26;20.48;;;15.77;;
39208;SDS011;24929;51.982;4.664;2023-05-07T00:07:51;21.73;;;15.40;;
39208;SDS011;24929;51.982;4.664;2023-05-07T00:10:20;16.67;;;14.48;;
39208;SDS011;24929;51.982;4.664;2023-05-07T00:12:45;22.92;;;16.58;;
39208;SDS011;24929;51.982;4.664;2023-05-07T00:15:10;17.35;;;15.05;;
39208;SDS011;24929;51.982;4.664;2023-05-07T00:17:36;25.63;;;15.75;;
39208;SDS011;24929;51.982;4.664;2023-05-07T00:20:02;17.83;;;15.70;;
39208;SDS011;24929;51.982;4.664;2023-05-07T00:22:29;17.95;;;16.00;;
39208;SDS011;24929;51.982;4.664;2023-05-07T00:24:55;19.88;;;15.75;;
39208;SDS011;24929;51.982;4.664;2023-05-07T00:27:21;17.65;;;15.48;;
39208;SDS011;24929;51.982;4.664;2023-05-07T00:29:47;20.80;;;15.75;;
39208;SDS011;24929;51.982;4.664;2023-05-07T00:32:12;18.85;;;15.68;;
39208;SDS011;24929;51.982;4.664;2023-05-07T00:34:38;18.42;;;15.55;;
39208;SDS011;24929;51.982;4.664;2023-05-07T00:37:04;19.80;;;15.88;;
39208;SDS011;24929;51.982;4.664;2023-05-07T00:39:32;22.52;;;16.40;;
39208;SDS011;24929;51.982;4.664;2023-05-07T00:41:57;22.63;;;15.73;;
39208;SDS011;24929;51.982;4.664;2023-05-07T00:44:23;20.27;;;14.10;;
39208;SDS011;24929;51.982;4.664;2023-05-07T00:46:48;20.40;;;16.20;;
39208;SDS011;24929;51.982;4.664;2023-05-07T00:49:14;24.42;;;17.23;;
39208;SDS011;24929;51.982;4.664;2023-05-07T00:51:42;24.27;;;17.38;;
39208;SDS011;24929;51.982;4.664;2023-05-07T00:54:08;22.55;;;17.52;;
39208;SDS011;24929;51.982;4.664;2023-05-07T00:56:34;20.83;;;17.88;;
39208;SDS011;24929;51.982;4.664;2023-05-07T00:59:00;25.02;;;17.30;;
39208;SDS011;24929;51.982;4.664;2023-05-07T01:01:26;27.70;;;18.50;;
39208;SDS011;24929;51.982;4.664;2023-05-07T01:03:52;22.05;;;18.35;;
39208;SDS011;24929;51.982;4.664;2023-05-07T01:06:18;22.20;;;17.63;;
39208;SDS011;24929;51.982;4.664;2023-05-07T01:08:44;26.27;;;17.40;;
39208;SDS011;24929;51.982;4.664;2023-05-07T01:11:09;26.27;;;17.15;;
39208;SDS011;24929;51.982;4.664;2023-05-07T01:13:36;21.00;;;16.20;;
39208;SDS011;24929;51.982;4.664;2023-05-07T01:16:02;21.48;;;17.83;;
39208;SDS011;24929;51.982;4.664;2023-05-07T01:18:28;20.92;;;17.05;;
39208;SDS011;24929;51.982;4.664;2023-05-07T01:20:55;23.00;;;18.35;;
39208;SDS011;24929;51.982;4.664;2023-05-07T01:23:23;21.83;;;19.13;;
39208;SDS011;24929;51.982;4.664;2023-05-07T01:25:53;28.90;;;22.30;;
39208;SDS011;24929;51.982;4.664;2023-05-07T01:28:19;23.17;;;19.52;;
39208;SDS011;24929;51.982;4.664;2023-05-07T01:30:46;23.67;;;20.00;;
39208;SDS011;24929;51.982;4.664;2023-05-07T01:33:18;24.87;;;19.73;;
39208;SDS011;24929;51.982;4.664;2023-05-07T01:35:47;26.55;;;19.42;;
39208;SDS011;24929;51.982;4.664;2023-05-07T01:38:16;25.02;;;20.77;;
39208;SDS011;24929;51.982;4.664;2023-05-07T01:40:43;21.98;;;18.58;;
39208;SDS011;24929;51.982;4.664;2023-05-07T01:43:09;25.67;;;19.73;;
39208;SDS011;24929;51.982;4.664;2023-05-07T01:45:35;23.58;;;19.85;;
39208;SDS011;24929;51.982;4.664;2023-05-07T01:48:01;22.65;;;18.98;;
39208;SDS011;24929;51.982;4.664;2023-05-07T01:50:28;26.00;;;19.63;;
39208;SDS011;24929;51.982;4.664;2023-05-07T01:52:54;22.77;;;19.23;;
39208;SDS011;24929;51.982;4.664;2023-05-07T01:55:20;22.75;;;17.75;;
39208;SDS011;24929;51.982;4.664;2023-05-07T01:57:45;21.10;;;17.55;;
39208;SDS011;24929;51.982;4.664;2023-05-07T02:00:11;19.70;;;17.17;;
39208;SDS011;24929;51.982;4.664;2023-05-07T02:02:36;20.35;;;18.17;;
39208;SDS011;24929;51.982;4.664;2023-05-07T02:05:03;20.38;;;18.23;;
39208;SDS011;24929;51.982;4.664;2023-05-07T02:07:29;20.15;;;17.63;;
39208;SDS011;24929;51.982;4.664;2023-05-07T02:09:54;18.88;;;17.00;;
39208;SDS011;24929;51.982;4.664;2023-05-07T02:12:20;21.55;;;18.75;;
39208;SDS011;24929;51.982;4.664;2023-05-07T02:14:46;20.88;;;18.73;;
39208;SDS011;24929;51.982;4.664;2023-05-07T02:17:11;19.20;;;16.08;;
39208;SDS011;24929;51.982;4.664;2023-05-07T02:19:36;19.67;;;17.33;;
39208;SDS011;24929;51.982;4.664;2023-05-07T02:22:02;22.45;;;17.25;;
39208;SDS011;24929;51.982;4.664;2023-05-07T02:24:27;23.60;;;18.25;;
39208;SDS011;24929;51.982;4.664;2023-05-07T02:26:52;20.85;;;17.95;;
39208;SDS011;24929;51.982;4.664;2023-05-07T02:29:18;24.95;;;18.20;;
39208;SDS011;24929;51.982;4.664;2023-05-07T02:31:43;21.73;;;19.30;;
39208;SDS011;24929;51.982;4.664;2023-05-07T02:34:08;23.75;;;18.73;;
39208;SDS011;24929;51.982;4.664;2023-05-07T02:36:34;21.73;;;19.23;;
39208;SDS011;24929;51.982;4.664;2023-05-07T02:39:00;24.00;;;18.15;;
39208;SDS011;24929;51.982;4.664;2023-05-07T02:41:25;18.90;;;16.98;;
39208;SDS011;24929;51.982;4.664;2023-05-07T02:43:51;19.95;;;17.67;;
39208;SDS011;24929;51.982;4.664;2023-05-07T02:46:16;19.50;;;17.17;;
39208;SDS011;24929;51.982;4.664;2023-05-07T02:48:41;18.10;;;16.25;;
39208;SDS011;24929;51.982;4.664;2023-05-07T02:51:07;19.27;;;16.80;;
39208;SDS011;24929;51.982;4.664;2023-05-07T02:53:32;20.95;;;16.42;;
39208;SDS011;24929;51.982;4.664;2023-05-07T02:55:58;18.75;;;16.67;;
39208;SDS011;24929;51.982;4.664;2023-05-07T02:58:25;18.38;;;16.05;;
39208;SDS011;24929;51.982;4.664;2023-05-07T03:00:50;17.75;;;14.50;;
39208;SDS011;24929;51.982;4.664;2023-05-07T03:03:16;16.58;;;14.85;;
39208;SDS011;24929;51.982;4.664;2023-05-07T03:05:42;17.05;;;14.55;;
39208;SDS011;24929;51.982;4.664;2023-05-07T03:08:07;17.35;;;15.63;;
39208;SDS011;24929;51.982;4.664;2023-05-07T03:10:33;14.77;;;13.13;;
39208;SDS011;24929;51.982;4.664;2023-05-07T03:13:00;17.45;;;13.60;;
39208;SDS011;24929;51.982;4.664;2023-05-07T03:15:25;16.40;;;14.07;;
39208;SDS011;24929;51.982;4.664;2023-05-07T03:17:51;15.10;;;13.20;;
39208;SDS011;24929;51.982;4.664;2023-05-07T03:20:16;15.18;;;13.60;;
39208;SDS011;24929;51.982;4.664;2023-05-07T03:22:41;16.25;;;13.95;;
39208;SDS011;24929;51.982;4.664;2023-05-07T03:25:07;17.02;;;13.27;;
39208;SDS011;24929;51.982;4.664;2023-05-07T03:27:33;16.13;;;13.90;;
39208;SDS011;24929;51.982;4.664;2023-05-07T03:30:02;16.38;;;13.30;;
39208;SDS011;24929;51.982;4.664;2023-05-07T03:32:27;14.40;;;12.88;;
39208;SDS011;24929;51.982;4.664;2023-05-07T03:34:53;15.23;;;13.82;;
39208;SDS011;24929;51.982;4.664;2023-05-07T03:37:18;14.13;;;12.68;;
39208;SDS011;24929;51.982;4.664;2023-05-07T03:39:44;14.18;;;12.82;;
39208;SDS011;24929;51.982;4.664;2023-05-07T03:42:09;15.43;;;13.63;;
39208;SDS011;24929;51.982;4.664;2023-05-07T03:44:35;13.90;;;12.52;;
39208;SDS011;24929;51.982;4.664;2023-05-07T03:47:01;13.05;;;11.82;;
39208;SDS011;24929;51.982;4.664;2023-05-07T03:49:27;14.23;;;12.75;;
39208;SDS011;24929;51.982;4.664;2023-05-07T03:51:52;14.68;;;12.65;;
39208;SDS011;24929;51.982;4.664;2023-05-07T03:54:17;15.02;;;13.07;;
39208;SDS011;24929;51.982;4.664;2023-05-07T03:56:43;14.10;;;12.52;;
39208;SDS011;24929;51.982;4.664;2023-05-07T03:59:08;13.45;;;12.00;;
39208;SDS011;24929;51.982;4.664;2023-05-07T04:01:33;13.73;;;12.38;;
39208;SDS011;24929;51.982;4.664;2023-05-07T04:03:59;13.80;;;12.40;;
39208;SDS011;24929;51.982;4.664;2023-05-07T04:06:24;15.23;;;12.30;;
39208;SDS011;24929;51.982;4.664;2023-05-07T04:08:50;12.93;;;11.70;;
39208;SDS011;24929;51.982;4.664;2023-05-07T04:11:15;13.57;;;12.20;;
39208;SDS011;24929;51.982;4.664;2023-05-07T04:13:40;15.50;;;13.10;;
39208;SDS011;24929;51.982;4.664;2023-05-07T04:16:06;12.82;;;11.48;;
39208;SDS011;24929;51.982;4.664;2023-05-07T04:18:31;13.88;;;12.48;;
39208;SDS011;24929;51.982;4.664;2023-05-07T04:20:57;12.38;;;11.18;;
39208;SDS011;24929;51.982;4.664;2023-05-07T04:23:22;12.75;;;11.50;;
39208;SDS011;24929;51.982;4.664;2023-05-07T04:25:50;12.50;;;11.05;;
39208;SDS011;24929;51.982;4.664;2023-05-07T04:28:15;13.95;;;12.50;;
39208;SDS011;24929;51.982;4.664;2023-05-07T04:30:41;13.18;;;11.80;;
39208;SDS011;24929;51.982;4.664;2023-05-07T04:33:07;13.90;;;12.38;;
39208;SDS011;24929;51.982;4.664;2023-05-07T04:35:32;14.40;;;12.80;;
39208;SDS011;24929;51.982;4.664;2023-05-07T04:37:58;13.93;;;12.63;;
39208;SDS011;24929;51.982;4.664;2023-05-07T04:40:23;14.32;;;12.88;;
39208;SDS011;24929;51.982;4.664;2023-05-07T04:42:48;14.25;;;12.98;;
39208;SDS011;24929;51.982;4.664;2023-05-07T04:45:14;14.73;;;13.02;;
39208;SDS011;24929;51.982;4.664;2023-05-07T04:47:40;14.48;;;13.05;;
39208;SDS011;24929;51.982;4.664;2023-05-07T04:50:06;14.88;;;13.32;;
39208;SDS011;24929;51.982;4.664;2023-05-07T04:52:33;17.00;;;14.13;;
39208;SDS011;24929;51.982;4.664;2023-05-07T04:54:59;15.27;;;13.68;;
39208;SDS011;24929;51.982;4.664;2023-05-07T04:57:24;19.58;;;13.48;;
39208;SDS011;24929;51.982;4.664;2023-05-07T04:59:50;14.52;;;13.13;;
39208;SDS011;24929;51.982;4.664;2023-05-07T05:02:15;14.05;;;12.65;;
39208;SDS011;24929;51.982;4.664;2023-05-07T05:04:40;15.50;;;13.85;;
39208;SDS011;24929;51.982;4.664;2023-05-07T05:07:06;15.20;;;13.63;;
39208;SDS011;24929;51.982;4.664;2023-05-07T05:09:32;15.32;;;13.73;;
39208;SDS011;24929;51.982;4.664;2023-05-07T05:11:57;15.50;;;13.07;;
39208;SDS011;24929;51.982;4.664;2023-05-07T05:14:22;14.13;;;12.65;;
39208;SDS011;24929;51.982;4.664;2023-05-07T05:16:48;13.75;;;12.45;;
39208;SDS011;24929;51.982;4.664;2023-05-07T05:19:13;16.63;;;14.68;;
39208;SDS011;24929;51.982;4.664;2023-05-07T05:21:38;16.92;;;12.90;;
39208;SDS011;24929;51.982;4.664;2023-05-07T05:24:04;14.40;;;12.45;;
39208;SDS011;24929;51.982;4.664;2023-05-07T05:26:29;16.73;;;14.05;;
39208;SDS011;24929;51.982;4.664;2023-05-07T05:28:55;16.08;;;14.10;;
39208;SDS011;24929;51.982;4.664;2023-05-07T05:31:20;13.80;;;11.93;;
39208;SDS011;24929;51.982;4.664;2023-05-07T05:33:46;12.95;;;11.57;;
39208;SDS011;24929;51.982;4.664;2023-05-07T05:36:11;16.50;;;12.23;;
39208;SDS011;24929;51.982;4.664;2023-05-07T05:38:38;13.07;;;11.93;;
39208;SDS011;24929;51.982;4.664;2023-05-07T05:41:03;18.20;;;12.60;;
39208;SDS011;24929;51.982;4.664;2023-05-07T05:43:29;19.17;;;13.48;;
39208;SDS011;24929;51.982;4.664;2023-05-07T05:45:55;13.85;;;12.43;;
39208;SDS011;24929;51.982;4.664;2023-05-07T05:48:21;22.20;;;12.50;;
39208;SDS011;24929;51.982;4.664;2023-05-07T05:50:46;16.10;;;14.43;;
39208;SDS011;24929;51.982;4.664;2023-05-07T05:53:12;14.15;;;12.70;;
39208;SDS011;24929;51.982;4.664;2023-05-07T05:55:37;15.48;;;13.80;;
39208;SDS011;24929;51.982;4.664;2023-05-07T05:58:02;16.13;;;12.77;;
39208;SDS011;24929;51.982;4.664;2023-05-07T06:00:28;16.88;;;14.38;;
39208;SDS011;24929;51.982;4.664;2023-05-07T06:02:54;18.20;;;15.18;;
39208;SDS011;24929;51.982;4.664;2023-05-07T06:05:19;16.73;;;14.93;;
39208;SDS011;24929;51.982;4.664;2023-05-07T06:07:45;17.35;;;15.43;;
39208;SDS011;24929;51.982;4.664;2023-05-07T06:10:10;16.65;;;14.15;;
39208;SDS011;24929;51.982;4.664;2023-05-07T06:12:35;18.13;;;15.45;;
39208;SDS011;24929;51.982;4.664;2023-05-07T06:15:01;19.17;;;16.95;;
39208;SDS011;24929;51.982;4.664;2023-05-07T06:17:26;22.52;;;16.83;;
39208;SDS011;24929;51.982;4.664;2023-05-07T06:19:52;17.65;;;15.77;;
39208;SDS011;24929;51.982;4.664;2023-05-07T06:22:17;21.30;;;17.75;;
39208;SDS011;24929;51.982;4.664;2023-05-07T06:24:43;18.25;;;16.33;;
39208;SDS011;24929;51.982;4.664;2023-05-07T06:27:08;19.65;;;17.60;;
39208;SDS011;24929;51.982;4.664;2023-05-07T06:29:34;20.52;;;17.35;;
39208;SDS011;24929;51.982;4.664;2023-05-07T06:32:10;24.50;;;19.60;;
39208;SDS011;24929;51.982;4.664;2023-05-07T06:34:37;22.42;;;18.35;;
39208;SDS011;24929;51.982;4.664;2023-05-07T06:37:03;21.50;;;19.17;;
39208;SDS011;24929;51.982;4.664;2023-05-07T06:39:29;24.15;;;19.60;;
39208;SDS011;24929;51.982;4.664;2023-05-07T06:41:54;22.10;;;18.60;;
39208;SDS011;24929;51.982;4.664;2023-05-07T06:44:20;22.48;;;20.08;;
39208;SDS011;24929;51.982;4.664;2023-05-07T06:46:45;21.60;;;19.35;;
39208;SDS011;24929;51.982;4.664;2023-05-07T06:49:11;22.75;;;20.35;;
39208;SDS011;24929;51.982;4.664;2023-05-07T06:51:38;25.35;;;22.13;;
39208;SDS011;24929;51.982;4.664;2023-05-07T06:54:03;25.95;;;21.35;;
39208;SDS011;24929;51.982;4.664;2023-05-07T06:56:29;21.67;;;19.02;;
39208;SDS011;24929;51.982;4.664;2023-05-07T06:58:55;21.40;;;19.25;;
39208;SDS011;24929;51.982;4.664;2023-05-07T07:01:20;21.65;;;19.35;;
39208;SDS011;24929;51.982;4.664;2023-05-07T07:03:45;20.80;;;18.60;;
39208;SDS011;24929;51.982;4.664;2023-05-07T07:06:11;21.02;;;18.70;;
39208;SDS011;24929;51.982;4.664;2023-05-07T07:08:37;22.60;;;20.23;;
39208;SDS011;24929;51.982;4.664;2023-05-07T07:11:05;21.38;;;17.52;;
39208;SDS011;24929;51.982;4.664;2023-05-07T07:13:32;23.50;;;20.00;;
39208;SDS011;24929;51.982;4.664;2023-05-07T07:15:57;23.08;;;20.20;;
39208;SDS011;24929;51.982;4.664;2023-05-07T07:18:23;26.10;;;21.20;;
39208;SDS011;24929;51.982;4.664;2023-05-07T07:20:48;22.83;;;19.90;;
39208;SDS011;24929;51.982;4.664;2023-05-07T07:23:14;23.83;;;21.45;;
39208;SDS011;24929;51.982;4.664;2023-05-07T07:25:39;24.65;;;20.90;;
39208;SDS011;24929;51.982;4.664;2023-05-07T07:28:05;25.25;;;22.55;;
39208;SDS011;24929;51.982;4.664;2023-05-07T07:30:30;23.90;;;21.42;;
39208;SDS011;24929;51.982;4.664;2023-05-07T07:32:56;26.77;;;23.02;;
39208;SDS011;24929;51.982;4.664;2023-05-07T07:35:27;24.80;;;21.35;;
39208;SDS011;24929;51.982;4.664;2023-05-07T07:37:52;22.40;;;20.17;;
39208;SDS011;24929;51.982;4.664;2023-05-07T07:40:18;27.73;;;20.48;;
39208;SDS011;24929;51.982;4.664;2023-05-07T07:42:43;21.50;;;17.42;;
39208;SDS011;24929;51.982;4.664;2023-05-07T07:45:08;20.58;;;18.40;;
39208;SDS011;24929;51.982;4.664;2023-05-07T07:47:34;19.52;;;17.33;;
39208;SDS011;24929;51.982;4.664;2023-05-07T07:49:59;23.00;;;17.85;;
39208;SDS011;24929;51.982;4.664;2023-05-07T07:52:25;21.52;;;18.00;;
39208;SDS011;24929;51.982;4.664;2023-05-07T07:54:50;20.08;;;16.00;;
39208;SDS011;24929;51.982;4.664;2023-05-07T07:57:15;18.15;;;15.85;;
39208;SDS011;24929;51.982;4.664;2023-05-07T07:59:41;17.20;;;14.77;;
39208;SDS011;24929;51.982;4.664;2023-05-07T08:08:23;17.25;;;13.63;;
39208;SDS011;24929;51.982;4.664;2023-05-07T08:10:49;14.40;;;11.70;;
39208;SDS011;24929;51.982;4.664;2023-05-07T08:13:15;13.00;;;11.60;;
39208;SDS011;24929;51.982;4.664;2023-05-07T08:15:41;12.07;;;10.57;;
39208;SDS011;24929;51.982;4.664;2023-05-07T08:18:06;12.20;;;10.77;;
39208;SDS011;24929;51.982;4.664;2023-05-07T08:20:31;12.05;;;9.88;;
39208;SDS011;24929;51.982;4.664;2023-05-07T08:22:58;10.50;;;9.45;;
39208;SDS011;24929;51.982;4.664;2023-05-07T08:25:23;10.45;;;9.48;;
39208;SDS011;24929;51.982;4.664;2023-05-07T08:27:49;11.40;;;10.07;;
39208;SDS011;24929;51.982;4.664;2023-05-07T08:30:14;9.98;;;8.95;;
39208;SDS011;24929;51.982;4.664;2023-05-07T08:32:40;10.38;;;9.32;;
39208;SDS011;24929;51.982;4.664;2023-05-07T08:35:05;12.85;;;10.70;;
39208;SDS011;24929;51.982;4.664;2023-05-07T08:37:31;10.60;;;9.50;;
39208;SDS011;24929;51.982;4.664;2023-05-07T08:39:56;11.35;;;10.27;;
39208;SDS011;24929;51.982;4.664;2023-05-07T08:42:23;10.90;;;9.80;;
39208;SDS011;24929;51.982;4.664;2023-05-07T08:44:50;12.75;;;8.80;;
39208;SDS011;24929;51.982;4.664;2023-05-07T08:47:18;11.40;;;8.10;;
39208;SDS011;24929;51.982;4.664;2023-05-07T08:49:44;10.05;;;9.05;;
39208;SDS011;24929;51.982;4.664;2023-05-07T08:52:11;10.20;;;8.05;;
39208;SDS011;24929;51.982;4.664;2023-05-07T08:54:37;11.65;;;8.48;;
39208;SDS011;24929;51.982;4.664;2023-05-07T08:57:03;8.90;;;8.00;;
39208;SDS011;24929;51.982;4.664;2023-05-07T08:59:29;6.85;;;6.15;;
39208;SDS011;24929;51.982;4.664;2023-05-07T09:01:55;10.63;;;7.85;;
39208;SDS011;24929;51.982;4.664;2023-05-07T09:04:20;9.73;;;7.82;;
39208;SDS011;24929;51.982;4.664;2023-05-07T09:06:46;12.48;;;7.82;;
39208;SDS011;24929;51.982;4.664;2023-05-07T09:09:14;10.85;;;8.63;;
39208;SDS011;24929;51.982;4.664;2023-05-07T09:11:42;9.02;;;8.00;;
39208;SDS011;24929;51.982;4.664;2023-05-07T09:14:07;12.25;;;9.13;;
39208;SDS011;24929;51.982;4.664;2023-05-07T09:16:33;12.88;;;9.68;;
39208;SDS011;24929;51.982;4.664;2023-05-07T09:18:59;11.70;;;10.13;;
39208;SDS011;24929;51.982;4.664;2023-05-07T09:21:25;9.68;;;8.77;;
39208;SDS011;24929;51.982;4.664;2023-05-07T09:23:52;10.57;;;8.35;;
39208;SDS011;24929;51.982;4.664;2023-05-07T09:26:20;10.75;;;9.70;;
39208;SDS011;24929;51.982;4.664;2023-05-07T09:28:46;10.57;;;8.50;;
39208;SDS011;24929;51.982;4.664;2023-05-07T09:31:12;9.95;;;8.90;;
39208;SDS011;24929;51.982;4.664;2023-05-07T09:33:38;9.10;;;8.20;;
39208;SDS011;24929;51.982;4.664;2023-05-07T09:36:04;9.75;;;8.07;;
39208;SDS011;24929;51.982;4.664;2023-05-07T09:38:34;8.85;;;7.32;;
39208;SDS011;24929;51.982;4.664;2023-05-07T09:41:07;8.45;;;7.60;;
39208;SDS011;24929;51.982;4.664;2023-05-07T09:43:37;7.85;;;7.10;;
39208;SDS011;24929;51.982;4.664;2023-05-07T09:46:13;9.27;;;8.02;;
39208;SDS011;24929;51.982;4.664;2023-05-07T09:48:42;8.45;;;7.45;;
39208;SDS011;24929;51.982;4.664;2023-05-07T09:53:54;11.68;;;8.65;;
39208;SDS011;24929;51.982;4.664;2023-05-07T09:56:21;12.10;;;7.90;;
39208;SDS011;24929;51.982;4.664;2023-05-07T09:58:48;9.15;;;8.02;;
39208;SDS011;24929;51.982;4.664;2023-05-07T10:01:14;9.00;;;7.30;;
39208;SDS011;24929;51.982;4.664;2023-05-07T10:03:42;8.43;;;7.40;;
39208;SDS011;24929;51.982;4.664;2023-05-07T10:06:09;8.75;;;7.88;;
39208;SDS011;24929;51.982;4.664;2023-05-07T10:08:35;8.13;;;6.93;;
39208;SDS011;24929;51.982;4.664;2023-05-07T10:11:02;7.70;;;6.93;;
39208;SDS011;24929;51.982;4.664;2023-05-07T10:13:29;8.77;;;6.28;;
39208;SDS011;24929;51.982;4.664;2023-05-07T10:15:56;11.18;;;6.80;;
39208;SDS011;24929;51.982;4.664;2023-05-07T10:18:22;7.85;;;5.93;;
39208;SDS011;24929;51.982;4.664;2023-05-07T10:20:54;10.00;;;6.10;;
39208;SDS011;24929;51.982;4.664;2023-05-07T10:23:23;6.80;;;5.82;;
39208;SDS011;24929;51.982;4.664;2023-05-07T10:25:49;6.20;;;5.15;;
39208;SDS011;24929;51.982;4.664;2023-05-07T10:28:15;7.70;;;5.60;;
39208;SDS011;24929;51.982;4.664;2023-05-07T10:33:36;8.60;;;6.32;;
39208;SDS011;24929;51.982;4.664;2023-05-07T10:36:04;8.88;;;6.28;;
39208;SDS011;24929;51.982;4.664;2023-05-07T10:38:31;6.90;;;5.93;;
39208;SDS011;24929;51.982;4.664;2023-05-07T10:40:57;11.68;;;6.22;;
39208;SDS011;24929;51.982;4.664;2023-05-07T10:43:22;6.32;;;5.72;;
39208;SDS011;24929;51.982;4.664;2023-05-07T10:51:28;9.90;;;6.38;;
39208;SDS011;24929;51.982;4.664;2023-05-07T10:56:36;6.63;;;5.72;;
39208;SDS011;24929;51.982;4.664;2023-05-07T11:04:16;6.18;;;5.15;;
39208;SDS011;24929;51.982;4.664;2023-05-07T11:06:49;4.53;;;4.13;;
39208;SDS011;24929;51.982;4.664;2023-05-07T11:13:02;6.05;;;4.22;;
39208;SDS011;24929;51.982;4.664;2023-05-07T11:15:03;5.40;;;4.75;;
39208;SDS011;24929;51.982;4.664;2023-05-07T11:17:30;6.45;;;4.60;;
39208;SDS011;24929;51.982;4.664;2023-05-07T11:19:57;6.20;;;4.07;;
39208;SDS011;24929;51.982;4.664;2023-05-07T11:25:00;5.93;;;4.82;;
39208;SDS011;24929;51.982;4.664;2023-05-07T11:27:26;7.93;;;4.65;;
39208;SDS011;24929;51.982;4.664;2023-05-07T11:29:52;7.15;;;4.40;;
39208;SDS011;24929;51.982;4.664;2023-05-07T11:34:56;5.72;;;5.10;;
39208;SDS011;24929;51.982;4.664;2023-05-07T11:37:25;5.78;;;4.75;;
39208;SDS011;24929;51.982;4.664;2023-05-07T11:40:02;6.38;;;5.13;;
39208;SDS011;24929;51.982;4.664;2023-05-07T11:42:32;7.82;;;4.03;;
39208;SDS011;24929;51.982;4.664;2023-05-07T11:45:02;5.28;;;4.03;;
39208;SDS011;24929;51.982;4.664;2023-05-07T11:47:31;6.57;;;5.18;;
39208;SDS011;24929;51.982;4.664;2023-05-07T11:49:57;6.35;;;5.07;;
39208;SDS011;24929;51.982;4.664;2023-05-07T11:52:31;5.03;;;4.50;;
39208;SDS011;24929;51.982;4.664;2023-05-07T11:54:57;5.53;;;4.68;;
39208;SDS011;24929;51.982;4.664;2023-05-07T11:57:25;6.72;;;4.93;;
39208;SDS011;24929;51.982;4.664;2023-05-07T11:59:58;6.00;;;4.75;;
39208;SDS011;24929;51.982;4.664;2023-05-07T12:02:24;5.97;;;4.57;;
39208;SDS011;24929;51.982;4.664;2023-05-07T12:04:51;8.13;;;5.20;;
39208;SDS011;24929;51.982;4.664;2023-05-07T12:07:17;6.90;;;5.63;;
39208;SDS011;24929;51.982;4.664;2023-05-07T12:09:43;5.57;;;4.40;;
39208;SDS011;24929;51.982;4.664;2023-05-07T12:12:10;6.25;;;5.03;;
39208;SDS011;24929;51.982;4.664;2023-05-07T12:14:39;5.70;;;5.20;;
39208;SDS011;24929;51.982;4.664;2023-05-07T12:17:05;6.47;;;4.53;;
39208;SDS011;24929;51.982;4.664;2023-05-07T12:19:32;6.30;;;5.15;;
39208;SDS011;24929;51.982;4.664;2023-05-07T12:21:59;6.97;;;5.10;;
39208;SDS011;24929;51.982;4.664;2023-05-07T12:24:24;8.63;;;5.70;;
39208;SDS011;24929;51.982;4.664;2023-05-07T12:26:50;7.30;;;5.55;;
39208;SDS011;24929;51.982;4.664;2023-05-07T12:29:15;7.95;;;5.95;;
39208;SDS011;24929;51.982;4.664;2023-05-07T12:31:41;6.72;;;5.90;;
39208;SDS011;24929;51.982;4.664;2023-05-07T12:34:13;7.85;;;6.18;;
39208;SDS011;24929;51.982;4.664;2023-05-07T12:36:39;5.57;;;5.03;;
39208;SDS011;24929;51.982;4.664;2023-05-07T12:39:08;8.43;;;5.93;;
39208;SDS011;24929;51.982;4.664;2023-05-07T12:44:21;6.47;;;5.30;;
39208;SDS011;24929;51.982;4.664;2023-05-07T12:46:47;8.93;;;6.25;;
39208;SDS011;24929;51.982;4.664;2023-05-07T12:49:12;6.85;;;5.82;;
39208;SDS011;24929;51.982;4.664;2023-05-07T12:51:38;9.30;;;6.75;;
39208;SDS011;24929;51.982;4.664;2023-05-07T12:54:03;6.25;;;5.50;;
39208;SDS011;24929;51.982;4.664;2023-05-07T12:56:30;7.32;;;5.90;;
39208;SDS011;24929;51.982;4.664;2023-05-07T12:58:59;8.88;;;6.22;;
39208;SDS011;24929;51.982;4.664;2023-05-07T13:01:28;8.13;;;6.72;;
39208;SDS011;24929;51.982;4.664;2023-05-07T13:03:56;7.57;;;6.78;;
39208;SDS011;24929;51.982;4.664;2023-05-07T13:06:25;9.40;;;8.32;;
39208;SDS011;24929;51.982;4.664;2023-05-07T13:08:51;9.10;;;7.90;;
39208;SDS011;24929;51.982;4.664;2023-05-07T13:11:17;9.13;;;7.93;;
39208;SDS011;24929;51.982;4.664;2023-05-07T13:13:42;16.08;;;7.93;;
39208;SDS011;24929;51.982;4.664;2023-05-07T13:16:08;11.77;;;8.35;;
39208;SDS011;24929;51.982;4.664;2023-05-07T13:18:35;8.85;;;7.07;;
39208;SDS011;24929;51.982;4.664;2023-05-07T13:21:01;9.82;;;7.78;;
39208;SDS011;24929;51.982;4.664;2023-05-07T13:23:27;9.80;;;8.55;;
39208;SDS011;24929;51.982;4.664;2023-05-07T13:25:53;9.82;;;8.10;;
39208;SDS011;24929;51.982;4.664;2023-05-07T13:28:22;9.00;;;8.02;;
39208;SDS011;24929;51.982;4.664;2023-05-07T13:30:51;8.50;;;7.63;;
39208;SDS011;24929;51.982;4.664;2023-05-07T13:33:18;10.38;;;7.57;;
39208;SDS011;24929;51.982;4.664;2023-05-07T13:35:43;8.63;;;7.57;;
39208;SDS011;24929;51.982;4.664;2023-05-07T13:38:09;8.35;;;7.15;;
39208;SDS011;24929;51.982;4.664;2023-05-07T13:40:35;13.73;;;8.52;;
39208;SDS011;24929;51.982;4.664;2023-05-07T13:43:00;10.75;;;8.95;;
39208;SDS011;24929;51.982;4.664;2023-05-07T13:45:29;13.25;;;9.73;;
39208;SDS011;24929;51.982;4.664;2023-05-07T13:47:54;12.95;;;9.40;;
39208;SDS011;24929;51.982;4.664;2023-05-07T13:50:20;17.13;;;11.55;;
39208;SDS011;24929;51.982;4.664;2023-05-07T13:52:46;13.23;;;11.77;;
39208;SDS011;24929;51.982;4.664;2023-05-07T13:55:18;17.55;;;10.18;;
39208;SDS011;24929;51.982;4.664;2023-05-07T13:57:44;13.75;;;9.95;;
39208;SDS011;24929;51.982;4.664;2023-05-07T14:00:11;21.13;;;12.40;;
39208;SDS011;24929;51.982;4.664;2023-05-07T14:02:37;14.77;;;11.65;;
39208;SDS011;24929;51.982;4.664;2023-05-07T14:05:02;13.80;;;11.20;;
39208;SDS011;24929;51.982;4.664;2023-05-07T14:07:28;17.88;;;12.45;;
39208;SDS011;24929;51.982;4.664;2023-05-07T14:09:54;14.55;;;11.43;;
39208;SDS011;24929;51.982;4.664;2023-05-07T14:12:20;23.88;;;12.23;;
39208;SDS011;24929;51.982;4.664;2023-05-07T14:14:45;16.88;;;12.35;;
39208;SDS011;24929;51.982;4.664;2023-05-07T14:17:11;14.40;;;11.82;;
39208;SDS011;24929;51.982;4.664;2023-05-07T14:19:37;16.42;;;11.10;;
39208;SDS011;24929;51.982;4.664;2023-05-07T14:22:02;15.73;;;11.40;;
39208;SDS011;24929;51.982;4.664;2023-05-07T14:24:28;19.60;;;10.05;;
39208;SDS011;24929;51.982;4.664;2023-05-07T14:26:53;12.73;;;10.65;;
39208;SDS011;24929;51.982;4.664;2023-05-07T14:29:19;12.82;;;10.38;;
39208;SDS011;24929;51.982;4.664;2023-05-07T14:31:44;12.98;;;9.82;;
39208;SDS011;24929;51.982;4.664;2023-05-07T14:34:10;13.05;;;10.60;;
39208;SDS011;24929;51.982;4.664;2023-05-07T14:36:36;11.73;;;10.43;;
39208;SDS011;24929;51.982;4.664;2023-05-07T14:39:03;11.68;;;10.18;;
39208;SDS011;24929;51.982;4.664;2023-05-07T14:41:28;12.00;;;10.27;;
39208;SDS011;24929;51.982;4.664;2023-05-07T14:43:54;13.52;;;10.48;;
39208;SDS011;24929;51.982;4.664;2023-05-07T14:46:19;11.13;;;10.02;;
39208;SDS011;24929;51.982;4.664;2023-05-07T14:48:44;14.15;;;9.13;;
39208;SDS011;24929;51.982;4.664;2023-05-07T14:51:11;12.65;;;9.63;;
39208;SDS011;24929;51.982;4.664;2023-05-07T14:53:37;12.25;;;10.75;;
39208;SDS011;24929;51.982;4.664;2023-05-07T14:56:03;11.48;;;10.32;;
39208;SDS011;24929;51.982;4.664;2023-05-07T14:58:29;11.55;;;10.38;;